sensor_id;sensor_type;location;lat;lon;timestamp;P1;durP1;ratioP1;P2;durP2;ratioP2
45274;SDS011;31019;43.780;25.948;2024-03-08T00:00:23;47.00;;;44.15;;
45274;SDS011;31019;43.780;25.948;2024-03-08T00:02:50;44.65;;;41.85;;
45274;SDS011;31019;43.780;25.948;2024-03-08T00:05:21;48.88;;;44.97;;
45274;SDS011;31019;43.780;25.948;2024-03-08T00:07:55;39.72;;;37.20;;
45274;SDS011;31019;43.780;25.948;2024-03-08T00:10:24;40.83;;;38.25;;
45274;SDS011;31019;43.780;25.948;2024-03-08T00:12:53;37.20;;;34.80;;
45274;SDS011;31019;43.780;25.948;2024-03-08T00:15:20;29.23;;;27.33;;
45274;SDS011;31019;43.780;25.948;2024-03-08T00:17:48;41.05;;;38.35;;
45274;SDS011;31019;43.780;25.948;2024-03-08T00:20:15;39.30;;;36.70;;
45274;SDS011;31019;43.780;25.948;2024-03-08T00:22:43;43.88;;;41.15;;
45274;SDS011;31019;43.780;25.948;2024-03-08T00:25:11;42.47;;;39.83;;
45274;SDS011;31019;43.780;25.948;2024-03-08T00:27:39;42.40;;;39.70;;
45274;SDS011;31019;43.780;25.948;2024-03-08T00:30:06;40.40;;;37.90;;
45274;SDS011;31019;43.780;25.948;2024-03-08T00:32:34;39.35;;;36.80;;
45274;SDS011;31019;43.780;25.948;2024-03-08T00:35:02;42.17;;;39.47;;
45274;SDS011;31019;43.780;25.948;2024-03-08T00:37:29;40.30;;;37.80;;
45274;SDS011;31019;43.780;25.948;2024-03-08T00:40:02;43.75;;;40.83;;
45274;SDS011;31019;43.780;25.948;2024-03-08T00:42:29;37.30;;;34.80;;
45274;SDS011;31019;43.780;25.948;2024-03-08T00:44:57;40.47;;;37.78;;
45274;SDS011;31019;43.780;25.948;2024-03-08T00:47:24;45.08;;;41.50;;
45274;SDS011;31019;43.780;25.948;2024-03-08T00:49:51;35.00;;;32.60;;
45274;SDS011;31019;43.780;25.948;2024-03-08T00:52:18;38.33;;;35.53;;
45274;SDS011;31019;43.780;25.948;2024-03-08T00:54:45;36.70;;;34.30;;
45274;SDS011;31019;43.780;25.948;2024-03-08T00:57:12;36.05;;;33.75;;
45274;SDS011;31019;43.780;25.948;2024-03-08T00:59:39;39.65;;;37.10;;
45274;SDS011;31019;43.780;25.948;2024-03-08T01:02:07;44.50;;;41.80;;
45274;SDS011;31019;43.780;25.948;2024-03-08T01:04:34;36.22;;;33.72;;
45274;SDS011;31019;43.780;25.948;2024-03-08T01:07:01;35.08;;;32.78;;
45274;SDS011;31019;43.780;25.948;2024-03-08T01:09:28;35.63;;;33.22;;
45274;SDS011;31019;43.780;25.948;2024-03-08T01:11:55;38.10;;;35.30;;
45274;SDS011;31019;43.780;25.948;2024-03-08T01:14:22;36.90;;;34.40;;
45274;SDS011;31019;43.780;25.948;2024-03-08T01:16:52;38.08;;;35.50;;
45274;SDS011;31019;43.780;25.948;2024-03-08T01:19:23;38.08;;;35.47;;
45274;SDS011;31019;43.780;25.948;2024-03-08T01:21:50;38.20;;;34.97;;
45274;SDS011;31019;43.780;25.948;2024-03-08T01:24:17;38.65;;;36.05;;
45274;SDS011;31019;43.780;25.948;2024-03-08T01:26:44;37.15;;;34.67;;
45274;SDS011;31019;43.780;25.948;2024-03-08T01:29:12;36.15;;;33.75;;
45274;SDS011;31019;43.780;25.948;2024-03-08T01:31:39;43.05;;;40.15;;
45274;SDS011;31019;43.780;25.948;2024-03-08T01:34:06;39.65;;;36.95;;
45274;SDS011;31019;43.780;25.948;2024-03-08T01:36:34;37.78;;;35.28;;
45274;SDS011;31019;43.780;25.948;2024-03-08T01:39:03;47.20;;;44.00;;
45274;SDS011;31019;43.780;25.948;2024-03-08T01:41:33;51.72;;;48.20;;
45274;SDS011;31019;43.780;25.948;2024-03-08T01:44:00;53.20;;;49.58;;
45274;SDS011;31019;43.780;25.948;2024-03-08T01:46:28;37.22;;;34.08;;
45274;SDS011;31019;43.780;25.948;2024-03-08T01:48:55;37.83;;;34.90;;
45274;SDS011;31019;43.780;25.948;2024-03-08T01:51:23;41.60;;;37.85;;
45274;SDS011;31019;43.780;25.948;2024-03-08T01:53:51;36.53;;;33.72;;
45274;SDS011;31019;43.780;25.948;2024-03-08T01:56:18;37.35;;;34.72;;
45274;SDS011;31019;43.780;25.948;2024-03-08T01:58:45;39.30;;;36.70;;
45274;SDS011;31019;43.780;25.948;2024-03-08T02:01:13;38.20;;;35.60;;
45274;SDS011;31019;43.780;25.948;2024-03-08T02:03:40;38.35;;;35.83;;
45274;SDS011;31019;43.780;25.948;2024-03-08T02:06:08;36.75;;;34.25;;
45274;SDS011;31019;43.780;25.948;2024-03-08T02:08:36;37.72;;;35.25;;
45274;SDS011;31019;43.780;25.948;2024-03-08T02:11:05;37.05;;;34.45;;
45274;SDS011;31019;43.780;25.948;2024-03-08T02:13:32;38.22;;;35.63;;
45274;SDS011;31019;43.780;25.948;2024-03-08T02:15:59;39.15;;;36.38;;
45274;SDS011;31019;43.780;25.948;2024-03-08T02:18:27;37.58;;;34.80;;
45274;SDS011;31019;43.780;25.948;2024-03-08T02:20:57;36.88;;;34.38;;
45274;SDS011;31019;43.780;25.948;2024-03-08T02:23:39;38.88;;;36.17;;
45274;SDS011;31019;43.780;25.948;2024-03-08T02:26:06;34.83;;;32.42;;
45274;SDS011;31019;43.780;25.948;2024-03-08T02:28:33;35.13;;;32.72;;
45274;SDS011;31019;43.780;25.948;2024-03-08T02:31:00;38.30;;;35.80;;
45274;SDS011;31019;43.780;25.948;2024-03-08T02:33:27;38.85;;;36.40;;
45274;SDS011;31019;43.780;25.948;2024-03-08T02:35:54;37.42;;;34.83;;
45274;SDS011;31019;43.780;25.948;2024-03-08T02:38:23;34.70;;;32.35;;
45274;SDS011;31019;43.780;25.948;2024-03-08T02:40:51;39.53;;;36.63;;
45274;SDS011;31019;43.780;25.948;2024-03-08T02:43:18;40.72;;;37.75;;
45274;SDS011;31019;43.780;25.948;2024-03-08T02:45:47;37.25;;;34.63;;
45274;SDS011;31019;43.780;25.948;2024-03-08T02:48:15;35.95;;;33.35;;
45274;SDS011;31019;43.780;25.948;2024-03-08T02:50:42;36.10;;;33.67;;
45274;SDS011;31019;43.780;25.948;2024-03-08T02:53:11;40.63;;;38.03;;
45274;SDS011;31019;43.780;25.948;2024-03-08T02:55:38;38.60;;;36.00;;
45274;SDS011;31019;43.780;25.948;2024-03-08T02:58:06;38.13;;;35.30;;
45274;SDS011;31019;43.780;25.948;2024-03-08T03:00:35;36.80;;;34.08;;
45274;SDS011;31019;43.780;25.948;2024-03-08T03:03:02;37.90;;;35.40;;
45274;SDS011;31019;43.780;25.948;2024-03-08T03:05:29;37.00;;;34.60;;
45274;SDS011;31019;43.780;25.948;2024-03-08T03:07:56;34.47;;;32.13;;
45274;SDS011;31019;43.780;25.948;2024-03-08T03:10:25;35.10;;;32.70;;
45274;SDS011;31019;43.780;25.948;2024-03-08T03:12:52;34.05;;;31.60;;
45274;SDS011;31019;43.780;25.948;2024-03-08T03:15:33;30.90;;;28.58;;
45274;SDS011;31019;43.780;25.948;2024-03-08T03:18:00;33.00;;;30.80;;
45274;SDS011;31019;43.780;25.948;2024-03-08T03:20:26;34.42;;;31.92;;
45274;SDS011;31019;43.780;25.948;2024-03-08T03:22:57;34.58;;;32.17;;
45274;SDS011;31019;43.780;25.948;2024-03-08T03:25:28;36.03;;;33.17;;
45274;SDS011;31019;43.780;25.948;2024-03-08T03:27:59;33.00;;;30.70;;
45274;SDS011;31019;43.780;25.948;2024-03-08T03:30:26;34.95;;;32.08;;
45274;SDS011;31019;43.780;25.948;2024-03-08T03:32:58;33.55;;;31.05;;
45274;SDS011;31019;43.780;25.948;2024-03-08T03:35:26;33.28;;;31.08;;
45274;SDS011;31019;43.780;25.948;2024-03-08T03:37:53;35.53;;;33.13;;
45274;SDS011;31019;43.780;25.948;2024-03-08T03:40:29;33.17;;;31.05;;
45274;SDS011;31019;43.780;25.948;2024-03-08T03:42:56;35.78;;;33.28;;
45274;SDS011;31019;43.780;25.948;2024-03-08T03:45:23;34.72;;;32.45;;
45274;SDS011;31019;43.780;25.948;2024-03-08T03:47:50;32.88;;;30.88;;
45274;SDS011;31019;43.780;25.948;2024-03-08T03:50:18;32.47;;;30.27;;
45274;SDS011;31019;43.780;25.948;2024-03-08T03:52:45;33.30;;;31.15;;
45274;SDS011;31019;43.780;25.948;2024-03-08T03:55:12;31.48;;;29.20;;
45274;SDS011;31019;43.780;25.948;2024-03-08T03:57:41;33.00;;;30.90;;
45274;SDS011;31019;43.780;25.948;2024-03-08T04:00:11;33.35;;;31.15;;
45274;SDS011;31019;43.780;25.948;2024-03-08T04:02:38;33.08;;;30.80;;
45274;SDS011;31019;43.780;25.948;2024-03-08T04:05:06;29.27;;;27.48;;
45274;SDS011;31019;43.780;25.948;2024-03-08T04:07:34;32.53;;;30.48;;
45274;SDS011;31019;43.780;25.948;2024-03-08T04:10:01;40.35;;;34.47;;
45274;SDS011;31019;43.780;25.948;2024-03-08T04:12:28;35.45;;;33.15;;
45274;SDS011;31019;43.780;25.948;2024-03-08T04:14:57;34.05;;;31.85;;
45274;SDS011;31019;43.780;25.948;2024-03-08T04:20:02;32.95;;;30.85;;
45274;SDS011;31019;43.780;25.948;2024-03-08T04:22:34;35.80;;;33.42;;
45274;SDS011;31019;43.780;25.948;2024-03-08T04:25:02;35.58;;;33.17;;
45274;SDS011;31019;43.780;25.948;2024-03-08T04:27:29;36.08;;;33.60;;
45274;SDS011;31019;43.780;25.948;2024-03-08T04:29:57;31.17;;;28.58;;
45274;SDS011;31019;43.780;25.948;2024-03-08T04:32:24;33.80;;;31.55;;
45274;SDS011;31019;43.780;25.948;2024-03-08T04:34:51;35.58;;;33.28;;
45274;SDS011;31019;43.780;25.948;2024-03-08T04:37:18;35.28;;;33.15;;
45274;SDS011;31019;43.780;25.948;2024-03-08T04:39:47;33.95;;;32.05;;
45274;SDS011;31019;43.780;25.948;2024-03-08T04:42:14;35.05;;;33.10;;
45274;SDS011;31019;43.780;25.948;2024-03-08T04:44:43;43.83;;;41.30;;
45274;SDS011;31019;43.780;25.948;2024-03-08T04:47:12;45.42;;;42.72;;
45274;SDS011;31019;43.780;25.948;2024-03-08T04:49:39;43.65;;;40.95;;
45274;SDS011;31019;43.780;25.948;2024-03-08T04:52:06;32.90;;;30.95;;
45274;SDS011;31019;43.780;25.948;2024-03-08T04:54:33;40.15;;;37.50;;
45274;SDS011;31019;43.780;25.948;2024-03-08T04:57:00;35.85;;;33.72;;
45274;SDS011;31019;43.780;25.948;2024-03-08T04:59:27;30.23;;;28.27;;
45274;SDS011;31019;43.780;25.948;2024-03-08T05:01:55;32.00;;;29.75;;
45274;SDS011;31019;43.780;25.948;2024-03-08T05:04:23;30.60;;;28.60;;
45274;SDS011;31019;43.780;25.948;2024-03-08T05:06:50;35.95;;;33.28;;
45274;SDS011;31019;43.780;25.948;2024-03-08T05:09:17;51.38;;;37.50;;
45274;SDS011;31019;43.780;25.948;2024-03-08T05:11:45;34.10;;;31.90;;
45274;SDS011;31019;43.780;25.948;2024-03-08T05:14:13;32.10;;;29.67;;
45274;SDS011;31019;43.780;25.948;2024-03-08T05:16:43;29.52;;;27.70;;
45274;SDS011;31019;43.780;25.948;2024-03-08T05:19:13;30.00;;;28.17;;
45274;SDS011;31019;43.780;25.948;2024-03-08T05:21:43;34.72;;;32.60;;
45274;SDS011;31019;43.780;25.948;2024-03-08T05:24:10;31.13;;;28.85;;
45274;SDS011;31019;43.780;25.948;2024-03-08T05:26:38;33.42;;;30.92;;
45274;SDS011;31019;43.780;25.948;2024-03-08T05:29:11;34.92;;;32.75;;
45274;SDS011;31019;43.780;25.948;2024-03-08T05:31:42;37.50;;;34.95;;
45274;SDS011;31019;43.780;25.948;2024-03-08T05:34:13;33.70;;;31.73;;
45274;SDS011;31019;43.780;25.948;2024-03-08T05:39:33;33.38;;;31.33;;
45274;SDS011;31019;43.780;25.948;2024-03-08T05:42:00;31.13;;;29.23;;
45274;SDS011;31019;43.780;25.948;2024-03-08T05:44:27;31.33;;;29.52;;
45274;SDS011;31019;43.780;25.948;2024-03-08T05:46:56;30.30;;;28.55;;
45274;SDS011;31019;43.780;25.948;2024-03-08T05:49:23;28.58;;;26.88;;
45274;SDS011;31019;43.780;25.948;2024-03-08T05:51:50;31.42;;;29.52;;
45274;SDS011;31019;43.780;25.948;2024-03-08T05:54:18;30.48;;;28.77;;
45274;SDS011;31019;43.780;25.948;2024-03-08T05:56:47;28.02;;;25.98;;
45274;SDS011;31019;43.780;25.948;2024-03-08T05:59:18;35.78;;;32.78;;
45274;SDS011;31019;43.780;25.948;2024-03-08T06:01:44;25.70;;;24.20;;
45274;SDS011;31019;43.780;25.948;2024-03-08T06:04:12;29.60;;;27.67;;
45274;SDS011;31019;43.780;25.948;2024-03-08T06:06:39;27.92;;;26.30;;
45274;SDS011;31019;43.780;25.948;2024-03-08T06:09:06;29.52;;;27.73;;
45274;SDS011;31019;43.780;25.948;2024-03-08T06:11:38;28.65;;;26.95;;
45274;SDS011;31019;43.780;25.948;2024-03-08T06:14:05;28.73;;;27.13;;
45274;SDS011;31019;43.780;25.948;2024-03-08T06:16:31;29.38;;;27.48;;
45274;SDS011;31019;43.780;25.948;2024-03-08T06:18:58;29.02;;;27.23;;
45274;SDS011;31019;43.780;25.948;2024-03-08T06:21:27;27.17;;;25.58;;
45274;SDS011;31019;43.780;25.948;2024-03-08T06:24:00;27.17;;;25.55;;
45274;SDS011;31019;43.780;25.948;2024-03-08T06:26:27;30.80;;;28.70;;
45274;SDS011;31019;43.780;25.948;2024-03-08T06:28:56;30.98;;;28.92;;
45274;SDS011;31019;43.780;25.948;2024-03-08T06:31:23;29.80;;;27.65;;
45274;SDS011;31019;43.780;25.948;2024-03-08T06:33:50;28.30;;;26.45;;
45274;SDS011;31019;43.780;25.948;2024-03-08T06:36:19;30.10;;;27.92;;
45274;SDS011;31019;43.780;25.948;2024-03-08T06:38:46;31.42;;;29.52;;
45274;SDS011;31019;43.780;25.948;2024-03-08T06:41:13;33.83;;;31.08;;
45274;SDS011;31019;43.780;25.948;2024-03-08T06:43:41;27.42;;;25.73;;
45274;SDS011;31019;43.780;25.948;2024-03-08T06:46:10;29.02;;;27.30;;
45274;SDS011;31019;43.780;25.948;2024-03-08T06:48:38;28.30;;;26.40;;
45274;SDS011;31019;43.780;25.948;2024-03-08T06:51:04;28.80;;;27.02;;
45274;SDS011;31019;43.780;25.948;2024-03-08T06:53:31;28.13;;;26.42;;
45274;SDS011;31019;43.780;25.948;2024-03-08T06:56:00;29.10;;;27.27;;
45274;SDS011;31019;43.780;25.948;2024-03-08T06:58:32;29.30;;;27.27;;
45274;SDS011;31019;43.780;25.948;2024-03-08T07:00:59;31.48;;;29.20;;
45274;SDS011;31019;43.780;25.948;2024-03-08T07:03:30;31.95;;;30.05;;
45274;SDS011;31019;43.780;25.948;2024-03-08T07:05:57;27.88;;;26.17;;
45274;SDS011;31019;43.780;25.948;2024-03-08T07:08:24;29.60;;;27.42;;
45274;SDS011;31019;43.780;25.948;2024-03-08T07:10:52;29.95;;;28.00;;
45274;SDS011;31019;43.780;25.948;2024-03-08T07:13:22;28.10;;;26.50;;
45274;SDS011;31019;43.780;25.948;2024-03-08T07:15:57;29.75;;;27.85;;
45274;SDS011;31019;43.780;25.948;2024-03-08T07:18:26;31.38;;;29.48;;
45274;SDS011;31019;43.780;25.948;2024-03-08T07:20:56;35.25;;;32.33;;
45274;SDS011;31019;43.780;25.948;2024-03-08T07:23:29;34.95;;;32.85;;
45274;SDS011;31019;43.780;25.948;2024-03-08T07:26:28;33.90;;;31.80;;
45274;SDS011;31019;43.780;25.948;2024-03-08T07:28:55;35.80;;;33.65;;
45274;SDS011;31019;43.780;25.948;2024-03-08T07:31:24;32.65;;;30.65;;
45274;SDS011;31019;43.780;25.948;2024-03-08T07:34:00;33.50;;;31.55;;
45274;SDS011;31019;43.780;25.948;2024-03-08T07:36:29;34.67;;;32.63;;
45274;SDS011;31019;43.780;25.948;2024-03-08T07:38:56;34.42;;;32.53;;
45274;SDS011;31019;43.780;25.948;2024-03-08T07:41:23;33.50;;;31.67;;
45274;SDS011;31019;43.780;25.948;2024-03-08T07:43:50;34.47;;;32.40;;
45274;SDS011;31019;43.780;25.948;2024-03-08T07:46:17;34.85;;;32.85;;
45274;SDS011;31019;43.780;25.948;2024-03-08T07:48:44;34.08;;;32.08;;
45274;SDS011;31019;43.780;25.948;2024-03-08T07:51:11;33.70;;;31.70;;
45274;SDS011;31019;43.780;25.948;2024-03-08T07:53:39;36.67;;;34.28;;
45274;SDS011;31019;43.780;25.948;2024-03-08T07:56:06;36.60;;;34.15;;
45274;SDS011;31019;43.780;25.948;2024-03-08T07:58:36;34.03;;;32.03;;
45274;SDS011;31019;43.780;25.948;2024-03-08T08:01:03;32.90;;;30.95;;
45274;SDS011;31019;43.780;25.948;2024-03-08T08:03:30;35.65;;;33.42;;
45274;SDS011;31019;43.780;25.948;2024-03-08T08:05:57;35.05;;;32.85;;
45274;SDS011;31019;43.780;25.948;2024-03-08T08:08:24;34.28;;;32.28;;
45274;SDS011;31019;43.780;25.948;2024-03-08T08:10:53;34.75;;;32.53;;
45274;SDS011;31019;43.780;25.948;2024-03-08T08:13:20;35.42;;;33.22;;
45274;SDS011;31019;43.780;25.948;2024-03-08T08:15:47;36.20;;;33.90;;
45274;SDS011;31019;43.780;25.948;2024-03-08T08:18:14;35.95;;;33.70;;
45274;SDS011;31019;43.780;25.948;2024-03-08T08:20:42;40.00;;;35.95;;
45274;SDS011;31019;43.780;25.948;2024-03-08T08:23:09;36.53;;;34.13;;
45274;SDS011;31019;43.780;25.948;2024-03-08T08:25:37;33.78;;;31.77;;
45274;SDS011;31019;43.780;25.948;2024-03-08T08:28:05;35.00;;;32.90;;
45274;SDS011;31019;43.780;25.948;2024-03-08T08:30:32;34.85;;;32.45;;
45274;SDS011;31019;43.780;25.948;2024-03-08T08:32:59;37.50;;;35.30;;
45274;SDS011;31019;43.780;25.948;2024-03-08T08:35:26;39.33;;;35.30;;
45274;SDS011;31019;43.780;25.948;2024-03-08T08:37:54;36.20;;;33.63;;
45274;SDS011;31019;43.780;25.948;2024-03-08T08:40:21;35.30;;;33.28;;
45274;SDS011;31019;43.780;25.948;2024-03-08T08:42:47;37.45;;;35.13;;
45274;SDS011;31019;43.780;25.948;2024-03-08T08:45:16;38.50;;;36.20;;
45274;SDS011;31019;43.780;25.948;2024-03-08T08:47:43;38.55;;;36.13;;
45274;SDS011;31019;43.780;25.948;2024-03-08T08:50:10;37.88;;;35.42;;
45274;SDS011;31019;43.780;25.948;2024-03-08T08:52:37;41.75;;;39.03;;
45274;SDS011;31019;43.780;25.948;2024-03-08T08:55:04;43.17;;;39.25;;
45274;SDS011;31019;43.780;25.948;2024-03-08T08:57:32;43.00;;;40.30;;
45274;SDS011;31019;43.780;25.948;2024-03-08T09:00:00;45.53;;;42.63;;
45274;SDS011;31019;43.780;25.948;2024-03-08T09:02:33;44.90;;;41.95;;
45274;SDS011;31019;43.780;25.948;2024-03-08T09:05:00;41.03;;;38.63;;
45274;SDS011;31019;43.780;25.948;2024-03-08T09:07:27;49.78;;;46.60;;
45274;SDS011;31019;43.780;25.948;2024-03-08T09:09:54;36.63;;;34.42;;
45274;SDS011;31019;43.780;25.948;2024-03-08T09:12:23;34.35;;;32.35;;
45274;SDS011;31019;43.780;25.948;2024-03-08T09:14:50;36.78;;;34.67;;
45274;SDS011;31019;43.780;25.948;2024-03-08T09:17:17;35.40;;;32.88;;
45274;SDS011;31019;43.780;25.948;2024-03-08T09:19:47;34.30;;;32.10;;
45274;SDS011;31019;43.780;25.948;2024-03-08T09:22:14;35.10;;;33.00;;
45274;SDS011;31019;43.780;25.948;2024-03-08T09:24:41;35.90;;;33.70;;
45274;SDS011;31019;43.780;25.948;2024-03-08T09:27:08;40.47;;;37.75;;
45274;SDS011;31019;43.780;25.948;2024-03-08T09:29:35;39.63;;;37.22;;
45274;SDS011;31019;43.780;25.948;2024-03-08T09:32:16;42.17;;;39.40;;
45274;SDS011;31019;43.780;25.948;2024-03-08T09:34:43;37.92;;;35.63;;
45274;SDS011;31019;43.780;25.948;2024-03-08T09:37:11;43.30;;;40.80;;
45274;SDS011;31019;43.780;25.948;2024-03-08T09:39:38;45.17;;;42.45;;
45274;SDS011;31019;43.780;25.948;2024-03-08T09:42:05;40.92;;;38.70;;
45274;SDS011;31019;43.780;25.948;2024-03-08T09:44:32;39.65;;;37.33;;
45274;SDS011;31019;43.780;25.948;2024-03-08T09:47:00;42.63;;;40.25;;
45274;SDS011;31019;43.780;25.948;2024-03-08T09:49:28;38.97;;;36.63;;
45274;SDS011;31019;43.780;25.948;2024-03-08T09:51:55;38.40;;;36.10;;
45274;SDS011;31019;43.780;25.948;2024-03-08T09:54:23;40.10;;;37.10;;
45274;SDS011;31019;43.780;25.948;2024-03-08T09:56:51;40.42;;;37.92;;
45274;SDS011;31019;43.780;25.948;2024-03-08T09:59:19;44.15;;;41.10;;
45274;SDS011;31019;43.780;25.948;2024-03-08T10:02:05;41.30;;;38.80;;
45274;SDS011;31019;43.780;25.948;2024-03-08T10:04:39;36.92;;;34.60;;
45274;SDS011;31019;43.780;25.948;2024-03-08T10:07:07;39.22;;;36.47;;
45274;SDS011;31019;43.780;25.948;2024-03-08T10:09:36;37.33;;;34.83;;
45274;SDS011;31019;43.780;25.948;2024-03-08T10:12:02;36.95;;;34.17;;
45274;SDS011;31019;43.780;25.948;2024-03-08T10:14:31;32.33;;;30.27;;
45274;SDS011;31019;43.780;25.948;2024-03-08T10:16:58;33.50;;;31.25;;
45274;SDS011;31019;43.780;25.948;2024-03-08T10:19:26;32.40;;;30.38;;
45274;SDS011;31019;43.780;25.948;2024-03-08T10:21:53;38.20;;;35.70;;
45274;SDS011;31019;43.780;25.948;2024-03-08T10:24:22;33.70;;;31.48;;
45274;SDS011;31019;43.780;25.948;2024-03-08T10:26:52;33.08;;;31.02;;
45274;SDS011;31019;43.780;25.948;2024-03-08T10:29:20;37.75;;;34.97;;
45274;SDS011;31019;43.780;25.948;2024-03-08T10:31:47;37.55;;;34.90;;
45274;SDS011;31019;43.780;25.948;2024-03-08T10:34:15;37.22;;;34.72;;
45274;SDS011;31019;43.780;25.948;2024-03-08T10:36:42;39.28;;;36.88;;
45274;SDS011;31019;43.780;25.948;2024-03-08T10:39:11;34.30;;;32.08;;
45274;SDS011;31019;43.780;25.948;2024-03-08T10:41:48;32.92;;;30.80;;
45274;SDS011;31019;43.780;25.948;2024-03-08T10:44:34;32.60;;;30.70;;
45274;SDS011;31019;43.780;25.948;2024-03-08T10:47:12;35.60;;;33.42;;
45274;SDS011;31019;43.780;25.948;2024-03-08T10:49:54;34.30;;;32.13;;
45274;SDS011;31019;43.780;25.948;2024-03-08T10:52:29;35.95;;;33.53;;
45274;SDS011;31019;43.780;25.948;2024-03-08T10:54:57;37.28;;;34.95;;
45274;SDS011;31019;43.780;25.948;2024-03-08T10:57:27;38.63;;;36.22;;
45274;SDS011;31019;43.780;25.948;2024-03-08T10:59:54;38.42;;;36.13;;
45274;SDS011;31019;43.780;25.948;2024-03-08T11:02:24;37.08;;;35.08;;
45274;SDS011;31019;43.780;25.948;2024-03-08T11:04:53;40.45;;;38.25;;
45274;SDS011;31019;43.780;25.948;2024-03-08T11:07:21;44.38;;;41.83;;
45274;SDS011;31019;43.780;25.948;2024-03-08T11:09:48;42.72;;;40.03;;
45274;SDS011;31019;43.780;25.948;2024-03-08T11:12:19;40.75;;;38.45;;
45274;SDS011;31019;43.780;25.948;2024-03-08T11:14:49;45.53;;;43.03;;
45274;SDS011;31019;43.780;25.948;2024-03-08T11:17:16;37.95;;;35.55;;
45274;SDS011;31019;43.780;25.948;2024-03-08T11:19:47;31.15;;;29.35;;
45274;SDS011;31019;43.780;25.948;2024-03-08T11:22:20;37.33;;;35.05;;
45274;SDS011;31019;43.780;25.948;2024-03-08T11:24:50;39.65;;;37.45;;
45274;SDS011;31019;43.780;25.948;2024-03-08T11:27:17;39.10;;;36.90;;
45274;SDS011;31019;43.780;25.948;2024-03-08T11:29:45;38.85;;;36.40;;
45274;SDS011;31019;43.780;25.948;2024-03-08T11:32:35;39.50;;;37.00;;
45274;SDS011;31019;43.780;25.948;2024-03-08T11:35:06;35.70;;;33.60;;
45274;SDS011;31019;43.780;25.948;2024-03-08T11:37:35;35.30;;;32.97;;
45274;SDS011;31019;43.780;25.948;2024-03-08T11:40:02;36.08;;;33.47;;
45274;SDS011;31019;43.780;25.948;2024-03-08T11:42:39;35.15;;;32.95;;
45274;SDS011;31019;43.780;25.948;2024-03-08T11:45:09;33.67;;;31.73;;
45274;SDS011;31019;43.780;25.948;2024-03-08T11:47:36;34.47;;;32.40;;
45274;SDS011;31019;43.780;25.948;2024-03-08T11:50:05;35.60;;;32.70;;
45274;SDS011;31019;43.780;25.948;2024-03-08T11:52:37;30.60;;;28.75;;
45274;SDS011;31019;43.780;25.948;2024-03-08T11:55:04;33.88;;;31.52;;
45274;SDS011;31019;43.780;25.948;2024-03-08T11:57:32;36.75;;;34.22;;
45274;SDS011;31019;43.780;25.948;2024-03-08T11:59:59;35.25;;;32.75;;
45274;SDS011;31019;43.780;25.948;2024-03-08T12:02:33;32.88;;;30.67;;
45274;SDS011;31019;43.780;25.948;2024-03-08T12:05:03;32.83;;;30.63;;
45274;SDS011;31019;43.780;25.948;2024-03-08T12:07:34;32.90;;;30.70;;
45274;SDS011;31019;43.780;25.948;2024-03-08T12:10:14;31.40;;;29.50;;
45274;SDS011;31019;43.780;25.948;2024-03-08T12:12:43;31.30;;;29.40;;
45274;SDS011;31019;43.780;25.948;2024-03-08T12:15:10;34.75;;;32.63;;
45274;SDS011;31019;43.780;25.948;2024-03-08T12:17:39;32.78;;;30.63;;
45274;SDS011;31019;43.780;25.948;2024-03-08T12:20:11;34.15;;;32.05;;
45274;SDS011;31019;43.780;25.948;2024-03-08T12:22:40;35.70;;;33.50;;
45274;SDS011;31019;43.780;25.948;2024-03-08T12:25:09;34.42;;;32.40;;
45274;SDS011;31019;43.780;25.948;2024-03-08T12:27:37;35.08;;;32.88;;
45274;SDS011;31019;43.780;25.948;2024-03-08T12:30:18;34.28;;;31.98;;
45274;SDS011;31019;43.780;25.948;2024-03-08T12:32:52;33.67;;;31.55;;
45274;SDS011;31019;43.780;25.948;2024-03-08T12:35:24;35.35;;;33.05;;
45274;SDS011;31019;43.780;25.948;2024-03-08T12:37:52;32.90;;;30.90;;
45274;SDS011;31019;43.780;25.948;2024-03-08T12:40:25;31.77;;;29.85;;
45274;SDS011;31019;43.780;25.948;2024-03-08T12:42:53;34.50;;;32.40;;
45274;SDS011;31019;43.780;25.948;2024-03-08T12:45:21;33.85;;;31.70;;
45274;SDS011;31019;43.780;25.948;2024-03-08T12:47:49;30.20;;;28.50;;
45274;SDS011;31019;43.780;25.948;2024-03-08T12:50:17;31.05;;;29.23;;
45274;SDS011;31019;43.780;25.948;2024-03-08T12:52:44;33.35;;;31.45;;
45274;SDS011;31019;43.780;25.948;2024-03-08T12:55:11;33.63;;;31.63;;
45274;SDS011;31019;43.780;25.948;2024-03-08T12:57:39;32.30;;;30.50;;
45274;SDS011;31019;43.780;25.948;2024-03-08T13:00:06;37.00;;;34.80;;
45274;SDS011;31019;43.780;25.948;2024-03-08T13:02:38;35.42;;;33.00;;
45274;SDS011;31019;43.780;25.948;2024-03-08T13:05:06;32.40;;;30.60;;
45274;SDS011;31019;43.780;25.948;2024-03-08T13:07:36;31.80;;;30.00;;
45274;SDS011;31019;43.780;25.948;2024-03-08T13:10:04;31.63;;;29.75;;
45274;SDS011;31019;43.780;25.948;2024-03-08T13:12:32;33.60;;;31.60;;
45274;SDS011;31019;43.780;25.948;2024-03-08T13:15:03;36.20;;;33.90;;
45274;SDS011;31019;43.780;25.948;2024-03-08T13:17:30;38.33;;;36.03;;
45274;SDS011;31019;43.780;25.948;2024-03-08T13:19:58;35.15;;;33.05;;
45274;SDS011;31019;43.780;25.948;2024-03-08T13:22:27;28.80;;;26.98;;
45274;SDS011;31019;43.780;25.948;2024-03-08T13:24:55;33.50;;;31.27;;
45274;SDS011;31019;43.780;25.948;2024-03-08T13:27:22;30.33;;;28.63;;
45274;SDS011;31019;43.780;25.948;2024-03-08T13:29:50;30.45;;;28.75;;
45274;SDS011;31019;43.780;25.948;2024-03-08T13:32:17;31.10;;;29.25;;
45274;SDS011;31019;43.780;25.948;2024-03-08T13:34:45;31.98;;;29.83;;
45274;SDS011;31019;43.780;25.948;2024-03-08T13:37:13;34.05;;;31.85;;
45274;SDS011;31019;43.780;25.948;2024-03-08T13:39:41;32.13;;;30.05;;
45274;SDS011;31019;43.780;25.948;2024-03-08T13:42:11;31.95;;;29.92;;
45274;SDS011;31019;43.780;25.948;2024-03-08T13:44:43;32.83;;;31.02;;
45274;SDS011;31019;43.780;25.948;2024-03-08T13:47:11;33.05;;;30.60;;
45274;SDS011;31019;43.780;25.948;2024-03-08T13:49:38;34.97;;;32.67;;
45274;SDS011;31019;43.780;25.948;2024-03-08T13:52:05;31.05;;;29.05;;
45274;SDS011;31019;43.780;25.948;2024-03-08T13:54:33;29.38;;;27.50;;
45274;SDS011;31019;43.780;25.948;2024-03-08T13:57:00;34.22;;;32.08;;
45274;SDS011;31019;43.780;25.948;2024-03-08T13:59:30;29.35;;;27.45;;
45274;SDS011;31019;43.780;25.948;2024-03-08T14:01:58;30.17;;;27.65;;
45274;SDS011;31019;43.780;25.948;2024-03-08T14:04:27;30.00;;;28.10;;
45274;SDS011;31019;43.780;25.948;2024-03-08T14:06:54;28.85;;;27.05;;
45274;SDS011;31019;43.780;25.948;2024-03-08T14:09:25;29.10;;;27.30;;
45274;SDS011;31019;43.780;25.948;2024-03-08T14:11:54;30.75;;;28.85;;
45274;SDS011;31019;43.780;25.948;2024-03-08T14:14:21;31.20;;;29.17;;
45274;SDS011;31019;43.780;25.948;2024-03-08T14:16:50;30.85;;;28.95;;
45274;SDS011;31019;43.780;25.948;2024-03-08T14:19:19;31.25;;;29.15;;
45274;SDS011;31019;43.780;25.948;2024-03-08T14:21:46;28.33;;;26.52;;